createdAt,value
2022-10-19T04:19:32.455Z,89.24
2022-10-19T04:22:35.435Z,89.25
2022-10-19T04:25:38.054Z,89.95
2022-10-19T04:28:41.209Z,90.14
2022-10-19T04:31:43.907Z,91.65
2022-10-19T04:34:46.664Z,91.96
2022-10-19T04:37:49.107Z,93.42
2022-10-19T04:40:52.460Z,92.17
2022-10-19T04:43:57.964Z,93.10
2022-10-19T04:47:00.761Z,93.90
2022-10-19T04:50:03.582Z,95.32
2022-10-19T04:53:06.479Z,95.32
2022-10-19T04:56:13.968Z,95.07
2022-10-19T04:59:16.667Z,95.75
2022-10-19T05:02:19.152Z,95.52
2022-10-19T05:05:21.938Z,95.87
2022-10-19T05:08:24.596Z,95.81
2022-10-19T05:11:28.095Z,96.19
2022-10-19T05:14:35.042Z,96.48
2022-10-19T05:17:39.522Z,96.51
2022-10-19T05:20:42.169Z,96.89
2022-10-19T05:23:52.520Z,97.59
2022-10-19T05:26:55.041Z,98.13
2022-10-19T05:29:57.900Z,98.88
2022-10-19T05:33:00.460Z,98.97
2022-10-19T05:36:15.587Z,100.00
2022-10-19T05:39:18.638Z,100.00
2022-10-19T05:42:21.394Z,100.00
2022-10-19T05:45:23.920Z,100.00
2022-10-19T05:48:27.996Z,100.00
2022-10-19T05:51:30.738Z,100.00
2022-10-19T05:54:33.548Z,100.00
2022-10-19T05:57:36.437Z,100.00
2022-10-19T06:00:42.865Z,100.00
2022-10-19T06:03:47.191Z,100.00
2022-10-19T06:06:49.700Z,100.00
2022-10-19T06:09:52.611Z,100.00
2022-10-19T06:12:55.190Z,100.00
2022-10-19T06:15:57.947Z,100.00
2022-10-19T06:19:00.499Z,100.00
2022-10-19T06:22:03.620Z,99.73
2022-10-19T06:25:06.738Z,98.71
2022-10-19T06:28:10.245Z,98.51
2022-10-19T06:31:13.556Z,98.20
2022-10-19T06:34:16.559Z,97.00
2022-10-19T06:37:19.314Z,96.48
2022-10-19T06:40:23.021Z,95.93
2022-10-19T06:43:25.754Z,95.41
2022-10-19T06:46:28.586Z,94.94
2022-10-19T06:49:31.245Z,94.85
2022-10-19T06:52:35.667Z,93.95
2022-10-19T06:55:38.363Z,92.57
2022-10-19T06:58:42.631Z,92.07
2022-10-19T07:01:45.274Z,90.82
2022-10-19T07:04:48.093Z,90.24
2022-10-19T07:07:50.692Z,89.17
2022-10-19T07:10:59.177Z,88.56
2022-10-19T07:14:01.820Z,88.31
2022-10-19T07:17:10.853Z,86.52
2022-10-19T07:20:13.514Z,86.75
2022-10-19T07:23:16.340Z,85.99
2022-10-19T07:26:23.407Z,85.29
2022-10-19T07:29:26.586Z,85.31
2022-10-19T07:32:29.425Z,84.58
2022-10-19T07:35:32.496Z,83.89
2022-10-19T07:38:35.375Z,84.02
2022-10-19T07:41:38.570Z,83.51
2022-10-19T07:44:41.077Z,82.49
2022-10-19T07:47:43.829Z,81.94
2022-10-19T07:50:49.170Z,80.92
2022-10-19T07:53:53.440Z,80.63
2022-10-19T07:56:56.100Z,80.76
2022-10-19T07:59:58.987Z,80.09
2022-10-19T08:03:57.519Z,80.23
2022-10-19T08:06:27.635Z,79.88
2022-10-19T08:12:53.300Z,78.42
2022-10-19T08:15:55.850Z,78.03
2022-10-19T08:19:06.374Z,77.66
2022-10-19T08:22:09.508Z,77.21
2022-10-19T08:25:14.733Z,76.12
2022-10-19T08:28:17.300Z,75.84
2022-10-19T08:31:22.464Z,75.53
2022-10-19T08:34:25.396Z,75.49
2022-10-19T08:41:40.090Z,75.11
2022-10-19T08:44:55.016Z,72.67
2022-10-19T08:56:51.305Z,69.56
2022-10-19T10:28:47.110Z,54.09
2022-10-19T10:31:58.910Z,50.45
2022-10-19T10:35:18.618Z,50.42
2022-10-19T10:38:33.289Z,47.22
2022-10-19T10:41:40.746Z,47.12
2022-10-19T10:44:50.722Z,46.27
2022-10-19T10:47:53.907Z,45.03
2022-10-19T10:50:59.316Z,44.14
2022-10-19T10:54:20.081Z,43.56
2022-10-19T10:57:25.719Z,42.82
2022-10-19T11:00:31.548Z,44.40
2022-10-19T11:03:46.424Z,44.58
2022-10-19T11:06:57.157Z,45.30
2022-10-19T11:10:09.817Z,44.06
2022-10-19T11:13:45.271Z,43.52
2022-10-19T11:16:52.317Z,42.35
2022-10-19T11:19:55.114Z,39.90
2022-10-19T11:23:20.356Z,38.86
2022-10-19T11:26:47.707Z,37.05
2022-10-19T11:30:17.845Z,35.36
2022-10-19T11:33:31.923Z,33.74
2022-10-19T11:36:57.267Z,33.52
2022-10-19T11:40:13.848Z,34.11
2022-10-19T11:43:46.164Z,33.05
2022-10-19T11:46:54.848Z,31.20
2022-10-19T11:50:16.929Z,28.01
2022-10-19T11:53:28.701Z,26.45
2022-10-19T11:56:51.501Z,26.35
2022-10-19T12:00:39.120Z,25.81
2022-10-19T12:03:54.725Z,24.79
2022-10-19T12:07:28.598Z,24.42
2022-10-19T12:11:07.499Z,24.95
2022-10-19T12:14:22.154Z,24.76
2022-10-19T12:17:31.166Z,23.24
2022-10-19T12:20:51.008Z,22.92
2022-10-19T12:23:56.144Z,21.85
2022-10-19T12:27:00.268Z,21.99
2022-10-19T12:30:08.394Z,22.92
2022-10-19T12:33:20.650Z,22.19
2022-10-19T12:36:32.125Z,23.07
2022-10-19T12:39:37.475Z,25.41
2022-10-19T12:43:11.056Z,27.24
2022-10-19T12:46:29.500Z,31.42
2022-10-19T12:49:45.836Z,33.99
2022-10-19T12:52:52.297Z,35.58
2022-10-19T12:56:06.156Z,36.27
2022-10-19T12:59:33.533Z,37.54
2022-10-19T13:02:40.153Z,38.96
2022-10-19T13:05:42.793Z,41.46
2022-10-19T13:08:57.609Z,42.18
2022-10-19T13:12:19.571Z,39.62
2022-10-19T13:15:34.346Z,40.49
2022-10-19T13:19:03.944Z,40.98
2022-10-19T13:22:33.391Z,41.80
2022-10-19T13:25:37.757Z,42.35
2022-10-19T13:28:53.307Z,42.32
2022-10-19T13:31:55.875Z,42.22
2022-10-19T13:35:38.674Z,42.10
2022-10-19T13:38:59.594Z,41.63
2022-10-19T13:42:02.785Z,39.70
2022-10-19T13:45:05.818Z,41.23
2022-10-19T13:48:34.911Z,42.74
2022-10-19T13:51:49.606Z,42.82
2022-10-19T13:55:10.966Z,43.63
2022-10-19T13:58:51.116Z,43.22
2022-10-19T14:02:23.758Z,43.69
2022-10-19T14:05:41.396Z,44.16
2022-10-19T14:09:05.912Z,44.93
2022-10-19T14:12:16.551Z,45.26
2022-10-19T14:15:28.654Z,46.24
2022-10-19T14:18:33.998Z,47.23
2022-10-19T14:21:37.063Z,47.29
2022-10-19T14:24:39.900Z,47.01
2022-10-19T14:27:42.936Z,48.63
2022-10-19T14:30:55.155Z,48.76
2022-10-19T14:34:02.657Z,49.34
2022-10-19T14:37:13.120Z,49.61
2022-10-19T14:40:26.557Z,49.26
2022-10-19T14:43:32.724Z,49.12
2022-10-19T14:46:35.444Z,49.23
2022-10-19T14:49:38.435Z,49.57
2022-10-19T14:52:41.614Z,48.16
2022-10-19T14:55:45.030Z,47.96
2022-10-19T14:58:55.960Z,48.15
2022-10-19T15:02:03.857Z,47.37
2022-10-19T15:05:19.208Z,47.11
2022-10-19T15:08:48.621Z,46.76
2022-10-19T15:11:53.606Z,46.95
2022-10-19T15:14:57.828Z,47.54
2022-10-19T15:18:00.365Z,47.94
2022-10-19T15:21:18.418Z,48.66
2022-10-19T15:24:29.895Z,49.18
2022-10-19T15:27:36.995Z,48.98
2022-10-19T15:30:41.302Z,49.65
2022-10-19T15:33:51.467Z,50.00
2022-10-19T15:36:59.282Z,49.96
2022-10-19T15:40:10.339Z,49.87
2022-10-19T15:43:32.920Z,50.86
2022-10-19T15:47:12.427Z,51.10
2022-10-19T15:50:32.423Z,51.32
2022-10-19T15:53:35.142Z,51.73
